Time,TemperatureF,DewpointF,PressureIn,WindDirection,WindDirectionDegrees,WindSpeedMPH,WindSpeedGustMPH,Humidity,HourlyPrecipIn,Conditions,Clouds,dailyrainin,SoftwareType,DateUTC
2013-09-09 00:02:00,66.6,55.3,29.59,SSW,199,3.0,4.0,67,0.00,,---,0.00,VWS V14.01,2013-09-09 06:02:00,
2013-09-09 00:03:00,65.6,56.0,29.59,SW,217,0.0,0.0,71,0.00,,---,0.00,VWS V14.01,2013-09-09 06:03:00,
2013-09-09 00:08:00,66.6,55.3,29.59,SW,221,5.0,7.0,67,0.00,,---,0.00,VWS V14.01,2013-09-09 06:08:00,
2013-09-09 00:13:00,66.6,55.3,29.59,SW,218,4.0,4.0,67,0.00,,---,0.00,VWS V14.01,2013-09-09 06:13:00,
2013-09-09 00:18:00,65.2,56.0,29.61,SW,217,0.0,0.0,72,0.00,,---,0.00,VWS V14.01,2013-09-09 06:18:00,
2013-09-09 00:20:00,66.6,55.3,29.59,SW,217,0.0,0.0,67,0.00,,---,0.00,VWS V14.01,2013-09-09 06:20:00,
2013-09-09 00:25:00,66.6,55.3,29.59,SW,217,0.0,0.0,67,0.00,,---,0.00,VWS V14.01,2013-09-09 06:25:00,
2013-09-09 00:27:00,65.0,55.8,29.61,SW,217,0.0,0.0,72,0.00,,---,0.00,VWS V14.01,2013-09-09 06:27:00,
2013-09-09 00:28:00,65.0,55.8,29.61,SW,217,0.0,0.0,72,0.00,,---,0.00,VWS V14.01,2013-09-09 06:28:00,
2013-09-09 00:31:00,66.4,55.5,29.59,SW,217,0.0,0.0,68,0.00,,---,0.00,VWS V14.01,2013-09-09 06:31:00,
2013-09-09 00:32:00,64.8,55.6,29.61,SW,217,0.0,0.0,72,0.00,,---,0.00,VWS V14.01,2013-09-09 06:32:00,
2013-09-09 00:35:00,64.8,55.6,29.61,SW,217,0.0,2.0,72,0.00,,---,0.00,VWS V14.01,2013-09-09 06:35:00,
2013-09-09 00:37:00,66.4,55.5,29.59,SW,217,0.0,0.0,68,0.00,,---,0.00,VWS V14.01,2013-09-09 06:37:00,
2013-09-09 00:39:00,64.8,55.6,29.61,SW,217,0.0,0.0,72,0.00,,---,0.00,VWS V14.01,2013-09-09 06:39:00,
2013-09-09 00:41:00,64.8,55.6,29.61,SW,217,0.0,0.0,72,0.00,,---,0.00,VWS V14.01,2013-09-09 06:41:00,
2013-09-09 00:43:00,66.1,55.7,29.58,SW,217,0.0,0.0,69,0.00,,---,0.00,VWS V14.01,2013-09-09 06:43:00,
2013-09-09 00:48:00,66.0,56.0,29.58,SW,217,0.0,0.0,70,0.00,,---,0.00,VWS V14.01,2013-09-09 06:48:00,
2013-09-09 00:50:00,64.7,56.2,29.61,SW,217,0.0,0.0,74,0.00,,---,0.00,VWS V14.01,2013-09-09 06:50:00,
2013-09-09 00:53:00,65.8,55.8,29.58,SW,217,0.0,0.0,70,0.00,,---,0.00,VWS V14.01,2013-09-09 06:53:00,
2013-09-09 01:00:00,65.6,56.0,29.59,SW,217,0.0,0.0,71,0.00,,---,0.00,VWS V14.01,2013-09-09 07:00:00,
2013-09-09 01:05:00,65.5,55.9,29.59,SW,217,0.0,0.0,71,0.00,,---,0.00,VWS V14.01,2013-09-09 07:05:00,
2013-09-09 01:10:00,65.2,56.0,29.59,SW,217,3.0,3.0,72,0.00,,---,0.00,VWS V14.01,2013-09-09 07:10:00,
2013-09-09 01:15:00,65.2,55.6,29.61,SW,217,0.0,0.0,71,0.00,,---,0.00,VWS V14.01,2013-09-09 07:15:00,
2013-09-09 01:22:00,65.0,55.8,29.61,SW,217,0.0,0.0,72,0.00,,---,0.00,VWS V14.01,2013-09-09 07:22:00,
2013-09-09 01:27:00,65.0,55.8,29.61,SW,217,0.0,0.0,72,0.00,,---,0.00,VWS V14.01,2013-09-09 07:27:00,
2013-09-09 01:32:00,62.9,58.0,29.62,SW,217,0.0,0.0,84,0.01,,---,0.01,VWS V14.01,2013-09-09 07:32:00,
2013-09-09 01:33:00,64.8,55.6,29.61,SW,217,0.0,0.0,72,0.00,,---,0.00,VWS V14.01,2013-09-09 07:33:00,
2013-09-09 01:38:00,64.8,56.0,29.61,SW,217,0.0,0.0,73,0.00,,---,0.00,VWS V14.01,2013-09-09 07:38:00,
2013-09-09 01:44:00,64.8,56.0,29.61,SW,217,0.0,0.0,73,0.00,,---,0.00,VWS V14.01,2013-09-09 07:44:00,
2013-09-09 01:46:00,62.0,57.1,29.64,SW,217,0.0,0.0,84,0.01,,---,0.01,VWS V14.01,2013-09-09 07:46:00,
2013-09-09 01:49:00,64.7,56.6,29.61,SW,217,0.0,0.0,75,0.01,,---,0.01,VWS V14.01,2013-09-09 07:49:00,
2013-09-09 01:52:00,61.6,57.0,29.64,SW,217,0.0,0.0,85,0.01,,---,0.01,VWS V14.01,2013-09-09 07:52:00,
2013-09-09 01:54:00,64.5,57.1,29.61,SW,217,0.0,0.0,77,0.01,,---,0.01,VWS V14.01,2013-09-09 07:54:00,
2013-09-09 01:59:00,64.3,57.3,29.61,SW,217,0.0,0.0,78,0.01,,---,0.01,VWS V14.01,2013-09-09 07:59:00,
2013-09-09 02:05:00,64.0,57.7,29.61,SW,217,0.0,0.0,80,0.01,,---,0.01,VWS V14.01,2013-09-09 08:05:00,
2013-09-09 02:12:00,63.5,57.2,29.62,SW,217,0.0,0.0,80,0.01,,---,0.01,VWS V14.01,2013-09-09 08:12:00,
2013-09-09 02:17:00,63.4,57.5,29.62,SW,217,0.0,0.0,81,0.01,,---,0.01,VWS V14.01,2013-09-09 08:17:00,
2013-09-09 02:19:00,60.7,56.2,29.64,SW,217,0.0,0.0,85,0.00,,---,0.01,VWS V14.01,2013-09-09 08:19:00,
2013-09-09 02:22:00,63.2,58.0,29.62,SW,217,0.0,0.0,83,0.01,,---,0.01,VWS V14.01,2013-09-09 08:22:00,
2013-09-09 02:27:00,60.4,55.9,29.64,SW,217,0.0,0.0,85,0.00,,---,0.01,VWS V14.01,2013-09-09 08:27:00,
2013-09-09 02:29:00,62.7,57.8,29.62,SW,217,0.0,0.0,84,0.01,,---,0.01,VWS V14.01,2013-09-09 08:29:00,
2013-09-09 02:35:00,62.4,57.5,29.62,SW,217,0.0,0.0,84,0.01,,---,0.01,VWS V14.01,2013-09-09 08:35:00,
2013-09-09 02:41:00,62.1,57.2,29.64,SW,217,0.0,0.0,84,0.01,,---,0.01,VWS V14.01,2013-09-09 08:41:00,
2013-09-09 02:47:00,61.8,57.2,29.64,SW,217,0.0,0.0,85,0.01,,---,0.01,VWS V14.01,2013-09-09 08:47:00,
2013-09-09 02:52:00,61.5,56.6,29.64,SW,217,0.0,0.0,84,0.00,,---,0.01,VWS V14.01,2013-09-09 08:52:00,
2013-09-09 02:57:00,61.3,56.8,29.63,SW,217,0.0,0.0,85,0.00,,---,0.01,VWS V14.01,2013-09-09 08:57:00,
2013-09-09 03:02:00,61.2,56.3,29.63,SW,217,0.0,0.0,84,0.00,,---,0.01,VWS V14.01,2013-09-09 09:02:00,
2013-09-09 03:07:00,61.0,56.5,29.63,SW,217,0.0,0.0,85,0.00,,---,0.01,VWS V14.01,2013-09-09 09:07:00,
2013-09-09 03:12:00,60.7,56.2,29.64,SW,217,0.0,0.0,85,0.00,,---,0.01,VWS V14.01,2013-09-09 09:12:00,
2013-09-09 03:17:00,60.5,56.0,29.64,SW,217,0.0,0.0,85,0.00,,---,0.01,VWS V14.01,2013-09-09 09:17:00,
2013-09-09 03:24:00,60.4,56.2,29.64,SW,217,0.0,0.0,86,0.00,,---,0.01,VWS V14.01,2013-09-09 09:24:00,
2013-09-09 03:29:00,60.5,56.6,29.63,SW,217,0.0,0.0,87,0.00,,---,0.01,VWS V14.01,2013-09-09 09:29:00,
2013-09-09 03:34:00,60.5,56.6,29.63,SW,217,0.0,0.0,87,0.00,,---,0.01,VWS V14.01,2013-09-09 09:34:00,
2013-09-09 03:39:00,60.5,56.6,29.63,SW,217,0.0,0.0,87,0.00,,---,0.01,VWS V14.01,2013-09-09 09:39:00,
2013-09-09 03:45:00,60.4,56.5,29.63,SW,217,0.0,0.0,87,0.00,,---,0.01,VWS V14.01,2013-09-09 09:45:00,
2013-09-09 03:51:00,60.4,56.8,29.63,SW,217,0.0,0.0,88,0.00,,---,0.01,VWS V14.01,2013-09-09 09:51:00,
2013-09-09 03:56:00,60.5,56.9,29.62,SW,217,0.0,0.0,88,0.00,,---,0.01,VWS V14.01,2013-09-09 09:56:00,
2013-09-09 04:01:00,60.5,56.9,29.62,SW,217,0.0,0.0,88,0.00,,---,0.01,VWS V14.01,2013-09-09 10:01:00,
2013-09-09 04:06:00,60.5,56.9,29.62,SW,217,0.0,0.0,88,0.00,,---,0.01,VWS V14.01,2013-09-09 10:06:00,
2013-09-09 04:12:00,60.5,56.9,29.62,SW,217,0.0,0.0,88,0.00,,---,0.01,VWS V14.01,2013-09-09 10:12:00,
2013-09-09 04:17:00,60.5,56.9,29.62,SW,217,0.0,0.0,88,0.00,,---,0.01,VWS V14.01,2013-09-09 10:17:00,
2013-09-09 04:22:00,60.5,56.9,29.62,SW,217,0.0,0.0,88,0.00,,---,0.01,VWS V14.01,2013-09-09 10:22:00,
2013-09-09 04:27:00,60.5,56.9,29.62,SW,217,0.0,0.0,88,0.00,,---,0.01,VWS V14.01,2013-09-09 10:27:00,
2013-09-09 04:32:00,60.4,56.8,29.62,SW,217,0.0,0.0,88,0.00,,---,0.01,VWS V14.01,2013-09-09 10:32:00,
2013-09-09 04:38:00,60.4,56.8,29.62,SW,217,0.0,0.0,88,0.00,,---,0.01,VWS V14.01,2013-09-09 10:38:00,
2013-09-09 04:43:00,60.4,56.8,29.63,SW,217,0.0,0.0,88,0.00,,---,0.01,VWS V14.01,2013-09-09 10:43:00,
2013-09-09 04:48:00,60.4,57.2,29.63,SW,217,0.0,0.0,89,0.00,,---,0.01,VWS V14.01,2013-09-09 10:48:00,
2013-09-09 04:53:00,60.2,57.0,29.63,SW,217,0.0,0.0,89,0.00,,---,0.01,VWS V14.01,2013-09-09 10:53:00,
2013-09-09 04:59:00,60.1,56.8,29.63,SW,217,0.0,0.0,89,0.00,,---,0.01,VWS V14.01,2013-09-09 10:59:00,
2013-09-09 05:04:00,59.9,56.3,29.63,SW,217,0.0,0.0,88,0.00,,---,0.01,VWS V14.01,2013-09-09 11:04:00,
2013-09-09 05:10:00,59.8,56.2,29.63,SW,217,0.0,0.0,88,0.00,,---,0.01,VWS V14.01,2013-09-09 11:10:00,
2013-09-09 05:15:00,59.8,56.2,29.64,SW,217,0.0,0.0,88,0.00,,---,0.01,VWS V14.01,2013-09-09 11:15:00,
2013-09-09 05:21:00,59.6,56.0,29.64,SW,217,0.0,0.0,88,0.00,,---,0.01,VWS V14.01,2013-09-09 11:21:00,
2013-09-09 05:27:00,59.5,56.0,29.64,SW,217,0.0,0.0,88,0.00,,---,0.01,VWS V14.01,2013-09-09 11:27:00,
2013-09-09 05:32:00,59.3,55.8,29.64,SW,217,0.0,0.0,88,0.00,,---,0.01,VWS V14.01,2013-09-09 11:32:00,
2013-09-09 05:38:00,59.2,55.7,29.64,SW,217,0.0,0.0,88,0.00,,---,0.01,VWS V14.01,2013-09-09 11:38:00,
2013-09-09 05:43:00,59.2,55.7,29.65,SW,217,0.0,0.0,88,0.00,,---,0.01,VWS V14.01,2013-09-09 11:43:00,
2013-09-09 05:48:00,59.3,56.1,29.65,SW,217,3.0,4.0,89,0.00,,---,0.01,VWS V14.01,2013-09-09 11:48:00,
2013-09-09 05:53:00,59.6,56.0,29.65,SE,144,0.0,1.0,88,0.00,,---,0.01,VWS V14.01,2013-09-09 11:53:00,
2013-09-09 05:59:00,59.9,56.3,29.64,SE,144,0.0,0.0,88,0.00,,---,0.01,VWS V14.01,2013-09-09 11:59:00,
2013-09-09 06:04:00,60.1,56.2,29.64,SE,144,0.0,0.0,87,0.00,,---,0.01,VWS V14.01,2013-09-09 12:04:00,
2013-09-09 06:09:00,60.2,56.3,29.64,SE,144,0.0,0.0,87,0.00,,---,0.01,VWS V14.01,2013-09-09 12:09:00,
2013-09-09 06:15:00,60.4,56.2,29.65,SE,144,0.0,0.0,86,0.00,,---,0.01,VWS V14.01,2013-09-09 12:15:00,
2013-09-09 06:20:00,60.4,56.2,29.65,SE,144,0.0,0.0,86,0.00,,---,0.01,VWS V14.01,2013-09-09 12:20:00,
2013-09-09 06:25:00,60.4,56.2,29.65,SE,144,0.0,0.0,86,0.00,,---,0.01,VWS V14.01,2013-09-09 12:25:00,
2013-09-09 06:31:00,60.4,56.2,29.66,SE,144,0.0,0.0,86,0.00,,---,0.01,VWS V14.01,2013-09-09 12:31:00,
2013-09-09 06:36:00,60.2,56.0,29.66,SE,144,0.0,0.0,86,0.00,,---,0.01,VWS V14.01,2013-09-09 12:36:00,
2013-09-09 06:42:00,60.2,56.0,29.66,SE,144,0.0,0.0,86,0.00,,---,0.01,VWS V14.01,2013-09-09 12:42:00,
2013-09-09 06:47:00,60.2,56.0,29.66,SE,144,0.0,0.0,86,0.00,,---,0.01,VWS V14.01,2013-09-09 12:47:00,
2013-09-09 06:52:00,60.2,56.0,29.66,SE,144,0.0,0.0,86,0.00,,---,0.01,VWS V14.01,2013-09-09 12:52:00,
2013-09-09 06:57:00,60.2,56.0,29.65,SE,144,0.0,0.0,86,0.00,,---,0.01,VWS V14.01,2013-09-09 12:57:00,
2013-09-09 07:03:00,60.2,56.0,29.65,SE,144,0.0,0.0,86,0.00,,---,0.01,VWS V14.01,2013-09-09 13:03:00,
2013-09-09 07:09:00,60.2,55.7,29.65,East,87,0.0,0.0,85,0.00,,---,0.01,VWS V14.01,2013-09-09 13:09:00,
2013-09-09 07:14:00,60.2,55.7,29.69,East,88,0.0,0.0,85,0.00,,---,0.01,VWS V14.01,2013-09-09 13:14:00,
2013-09-09 07:19:00,60.4,56.2,29.69,East,87,0.0,0.0,86,0.00,,---,0.01,VWS V14.01,2013-09-09 13:19:00,
2013-09-09 07:24:00,60.4,56.5,29.69,East,88,0.0,0.0,87,0.00,,---,0.01,VWS V14.01,2013-09-09 13:24:00,
2013-09-09 07:29:00,60.5,56.3,29.69,East,87,0.0,0.0,86,0.00,,---,0.01,VWS V14.01,2013-09-09 13:29:00,
2013-09-09 07:35:00,60.7,56.5,29.69,East,87,0.0,0.0,86,0.00,,---,0.01,VWS V14.01,2013-09-09 13:35:00,
2013-09-09 07:40:00,60.7,56.5,29.69,East,88,0.0,0.0,86,0.00,,---,0.01,VWS V14.01,2013-09-09 13:40:00,
2013-09-09 07:46:00,61.0,56.8,29.67,East,87,0.0,0.0,86,0.00,,---,0.01,VWS V14.01,2013-09-09 13:46:00,
2013-09-09 07:51:00,61.2,57.0,29.67,East,87,0.0,0.0,86,0.00,,---,0.01,VWS V14.01,2013-09-09 13:51:00,
2013-09-09 07:56:00,61.3,57.1,29.67,East,88,0.0,0.0,86,0.00,,---,0.01,VWS V14.01,2013-09-09 13:56:00,
2013-09-09 08:02:00,61.6,57.4,29.67,East,87,0.0,0.0,86,0.00,,---,0.01,VWS V14.01,2013-09-09 14:02:00,
2013-09-09 08:08:00,62.0,57.1,29.67,East,87,0.0,0.0,84,0.00,,---,0.01,VWS V14.01,2013-09-09 14:08:00,
2013-09-09 08:13:00,62.4,57.5,29.67,East,88,0.0,0.0,84,0.00,,---,0.01,VWS V14.01,2013-09-09 14:13:00,
2013-09-09 08:18:00,62.7,57.8,29.67,East,88,0.0,0.0,84,0.00,,---,0.01,VWS V14.01,2013-09-09 14:18:00,
2013-09-09 08:23:00,62.9,57.3,29.67,NE,41,3.0,3.0,82,0.00,,---,0.01,VWS V14.01,2013-09-09 14:23:00,
2013-09-09 08:29:00,63.2,56.9,29.67,NNE,29,2.0,3.0,80,0.00,,---,0.01,VWS V14.01,2013-09-09 14:29:00,
2013-09-09 08:34:00,63.2,56.2,29.67,NE,40,4.0,5.0,78,0.00,,---,0.01,VWS V14.01,2013-09-09 14:34:00,
2013-09-09 08:39:00,63.4,56.1,29.67,NE,40,0.0,3.0,77,0.00,,---,0.01,VWS V14.01,2013-09-09 14:39:00,
2013-09-09 08:44:00,63.5,56.2,29.67,NE,42,4.0,4.0,77,0.00,,---,0.01,VWS V14.01,2013-09-09 14:44:00,
2013-09-09 08:49:00,63.7,56.0,29.67,NE,42,0.0,3.0,76,0.00,,---,0.01,VWS V14.01,2013-09-09 14:49:00,
2013-09-09 08:55:00,64.0,56.3,29.67,NE,44,3.0,4.0,76,0.00,,---,0.01,VWS V14.01,2013-09-09 14:55:00,
2013-09-09 09:00:00,64.3,56.2,29.67,NE,44,0.0,3.0,75,0.00,,---,0.01,VWS V14.01,2013-09-09 15:00:00,
2013-09-09 09:05:00,64.7,57.3,29.67,NE,44,0.0,0.0,77,0.00,,---,0.01,VWS V14.01,2013-09-09 15:05:00,
2013-09-09 09:11:00,65.0,56.2,29.67,ENE,57,4.0,5.0,73,0.00,,---,0.01,VWS V14.01,2013-09-09 15:11:00,
2013-09-09 09:17:00,65.3,56.0,29.67,NE,56,2.0,7.0,72,0.00,,---,0.01,VWS V14.01,2013-09-09 15:17:00,
2013-09-09 09:22:00,65.5,56.2,29.67,North,10,0.0,3.0,72,0.00,,---,0.01,VWS V14.01,2013-09-09 15:22:00,
2013-09-09 09:27:00,65.6,56.3,29.67,NE,49,1.0,3.0,72,0.00,,---,0.01,VWS V14.01,2013-09-09 15:27:00,
2013-09-09 09:32:00,65.6,56.3,29.67,NE,49,3.0,3.0,72,0.00,,---,0.01,VWS V14.01,2013-09-09 15:32:00,
2013-09-09 09:38:00,65.8,55.8,29.67,NE,49,1.0,3.0,70,0.00,,---,0.01,VWS V14.01,2013-09-09 15:38:00,
2013-09-09 09:44:00,66.0,56.3,29.67,NE,49,0.0,1.0,71,0.00,,---,0.01,VWS V14.01,2013-09-09 15:44:00,
2013-09-09 09:49:00,66.1,56.0,29.67,NE,49,0.0,0.0,70,0.00,,---,0.01,VWS V14.01,2013-09-09 15:49:00,
2013-09-09 09:54:00,66.3,55.8,29.67,NE,49,2.0,3.0,69,0.00,,---,0.01,VWS V14.01,2013-09-09 15:54:00,
2013-09-09 10:00:00,66.4,56.7,29.67,NE,49,0.0,0.0,71,0.00,,---,0.01,VWS V14.01,2013-09-09 16:00:00,
2013-09-09 10:05:00,66.6,56.5,29.67,NE,49,0.0,0.0,70,0.00,,---,0.01,VWS V14.01,2013-09-09 16:05:00,
2013-09-09 10:10:00,66.8,56.3,29.67,NE,49,0.0,0.0,69,0.00,,---,0.01,VWS V14.01,2013-09-09 16:10:00,
2013-09-09 10:15:00,66.9,56.8,29.67,NE,49,0.0,0.0,70,0.00,,---,0.01,VWS V14.01,2013-09-09 16:15:00,
2013-09-09 10:21:00,67.1,56.2,29.67,NE,49,0.0,0.0,68,0.00,,---,0.01,VWS V14.01,2013-09-09 16:21:00,
2013-09-09 10:26:00,67.4,57.7,29.66,NE,49,0.0,0.0,71,0.00,,---,0.01,VWS V14.01,2013-09-09 16:26:00,
2013-09-09 10:32:00,67.6,57.1,29.66,NE,49,0.0,0.0,69,0.00,,---,0.01,VWS V14.01,2013-09-09 16:32:00,
2013-09-09 10:37:00,67.9,57.4,29.66,NE,49,0.0,0.0,69,0.00,,---,0.01,VWS V14.01,2013-09-09 16:37:00,
2013-09-09 10:42:00,68.1,56.7,29.65,NE,49,0.0,0.0,67,0.00,,---,0.01,VWS V14.01,2013-09-09 16:42:00,
2013-09-09 10:48:00,68.4,57.4,29.65,NE,49,0.0,0.0,68,0.00,,---,0.01,VWS V14.01,2013-09-09 16:48:00,
2013-09-09 10:53:00,68.8,58.2,29.65,NE,49,3.0,4.0,69,0.00,,---,0.01,VWS V14.01,2013-09-09 16:53:00,
2013-09-09 10:59:00,68.9,58.7,29.66,NE,49,0.0,2.0,70,0.00,,---,0.01,VWS V14.01,2013-09-09 16:59:00,
2013-09-09 11:04:00,68.9,57.9,29.66,NE,49,0.0,0.0,68,0.00,,---,0.01,VWS V14.01,2013-09-09 17:04:00,
2013-09-09 11:10:00,68.9,57.5,29.66,NE,49,0.0,0.0,67,0.00,,---,0.01,VWS V14.01,2013-09-09 17:10:00,
2013-09-09 11:16:00,68.9,57.9,29.65,NE,49,0.0,0.0,68,0.00,,---,0.01,VWS V14.01,2013-09-09 17:16:00,
2013-09-09 11:21:00,68.9,57.5,29.65,NE,49,0.0,0.0,67,0.00,,---,0.01,VWS V14.01,2013-09-09 17:21:00,
2013-09-09 11:27:00,69.1,58.1,29.66,NE,49,0.0,0.0,68,0.00,,---,0.01,VWS V14.01,2013-09-09 17:27:00,
2013-09-09 11:32:00,69.3,57.9,29.66,NE,49,0.0,0.0,67,0.00,,---,0.01,VWS V14.01,2013-09-09 17:32:00,
2013-09-09 11:37:00,69.4,57.1,29.66,NE,49,0.0,0.0,65,0.00,,---,0.01,VWS V14.01,2013-09-09 17:37:00,
2013-09-09 11:42:00,69.6,58.2,29.65,NE,49,0.0,0.0,67,0.00,,---,0.01,VWS V14.01,2013-09-09 17:42:00,
2013-09-09 11:47:00,69.6,57.8,29.65,NE,49,0.0,0.0,66,0.00,,---,0.01,VWS V14.01,2013-09-09 17:47:00,
2013-09-09 11:53:00,69.9,57.6,29.65,NE,49,0.0,0.0,65,0.00,,---,0.01,VWS V14.01,2013-09-09 17:53:00,
2013-09-09 11:58:00,70.3,58.0,29.66,NE,49,2.0,3.0,65,0.00,,---,0.01,VWS V14.01,2013-09-09 17:58:00,
2013-09-09 12:03:00,70.4,56.8,29.66,NE,49,0.0,0.0,62,0.00,,---,0.01,VWS V14.01,2013-09-09 18:03:00,
2013-09-09 12:08:00,70.8,58.5,29.66,NE,49,3.0,4.0,65,0.00,,---,0.01,VWS V14.01,2013-09-09 18:08:00,
2013-09-09 12:13:00,71.1,57.9,29.65,NE,49,0.0,3.0,63,0.00,,---,0.01,VWS V14.01,2013-09-09 18:13:00,
2013-09-09 12:18:00,71.6,57.5,29.65,NNW,348,0.0,0.0,61,0.00,,---,0.01,VWS V14.01,2013-09-09 18:18:00,
2013-09-09 12:23:00,72.0,57.8,29.65,NNW,348,2.0,3.0,61,0.00,,---,0.01,VWS V14.01,2013-09-09 18:23:00,
2013-09-09 12:28:00,72.5,57.8,29.63,NNW,340,1.0,1.0,60,0.00,,---,0.01,VWS V14.01,2013-09-09 18:28:00,
2013-09-09 12:34:00,73.0,58.8,29.63,NNW,336,2.0,2.0,61,0.00,,---,0.01,VWS V14.01,2013-09-09 18:34:00,
2013-09-09 12:39:00,73.3,57.7,29.63,WNW,300,0.0,0.0,58,0.00,,---,0.01,VWS V14.01,2013-09-09 18:39:00,
2013-09-09 12:44:00,73.7,57.0,29.62,NNW,329,2.0,2.0,56,0.00,,---,0.01,VWS V14.01,2013-09-09 18:44:00,
2013-09-09 12:49:00,73.9,56.2,29.62,NW,323,0.0,0.0,54,0.00,,---,0.01,VWS V14.01,2013-09-09 18:49:00,
2013-09-09 12:55:00,74.0,57.3,29.62,NW,322,2.0,2.0,56,0.00,,---,0.01,VWS V14.01,2013-09-09 18:55:00,
2013-09-09 13:01:00,74.0,58.3,29.61,SW,230,4.0,5.0,58,0.00,,---,0.01,VWS V14.01,2013-09-09 19:01:00,
2013-09-09 13:06:00,74.0,59.7,29.61,SW,230,3.0,3.0,61,0.00,,---,0.01,VWS V14.01,2013-09-09 19:06:00,
2013-09-09 13:11:00,74.2,59.4,29.61,SW,235,3.0,3.0,60,0.00,,---,0.01,VWS V14.01,2013-09-09 19:11:00,
2013-09-09 13:17:00,74.2,58.0,29.61,WSW,241,5.0,6.0,57,0.00,,---,0.01,VWS V14.01,2013-09-09 19:17:00,
2013-09-09 13:23:00,74.0,58.8,29.61,West,280,7.0,13.0,59,0.00,,---,0.01,VWS V14.01,2013-09-09 19:23:00,
2013-09-09 13:29:00,73.3,57.7,29.61,West,265,13.0,13.0,58,0.00,,---,0.01,VWS V14.01,2013-09-09 19:29:00,
2013-09-09 13:34:00,73.0,57.4,29.61,West,274,11.0,15.0,58,0.00,,---,0.01,VWS V14.01,2013-09-09 19:34:00,
2013-09-09 13:39:00,72.0,57.4,29.61,NW,304,9.0,19.0,60,0.00,,---,0.01,VWS V14.01,2013-09-09 19:39:00,
2013-09-09 13:44:00,70.9,57.2,29.63,WSW,243,5.0,15.0,62,0.00,,---,0.01,VWS V14.01,2013-09-09 19:44:00,
2013-09-09 13:50:00,69.4,57.1,29.63,WSW,237,10.0,13.0,65,0.00,,---,0.01,VWS V14.01,2013-09-09 19:50:00,
2013-09-09 13:55:00,68.4,57.4,29.63,West,275,9.0,17.0,68,0.00,,---,0.01,VWS V14.01,2013-09-09 19:55:00,
2013-09-09 14:00:00,67.6,57.9,29.65,WSW,238,10.0,13.0,71,0.00,,---,0.01,VWS V14.01,2013-09-09 20:00:00,
2013-09-09 14:05:00,66.8,58.6,29.65,West,259,4.0,6.0,75,0.00,,---,0.01,VWS V14.01,2013-09-09 20:05:00,
2013-09-09 14:11:00,66.0,59.3,29.67,West,281,12.0,12.0,79,0.00,,---,0.01,VWS V14.01,2013-09-09 20:11:00,
2013-09-09 14:16:00,65.6,59.6,29.67,West,263,9.0,13.0,81,0.01,,---,0.02,VWS V14.01,2013-09-09 20:16:00,
2013-09-09 14:21:00,65.5,60.5,29.67,West,265,3.0,7.0,84,0.01,,---,0.02,VWS V14.01,2013-09-09 20:21:00,
2013-09-09 14:26:00,65.5,60.2,29.67,West,262,6.0,10.0,83,0.01,,---,0.02,VWS V14.01,2013-09-09 20:26:00,
2013-09-09 14:31:00,65.8,59.5,29.67,WNW,294,4.0,10.0,80,0.01,,---,0.02,VWS V14.01,2013-09-09 20:31:00,
2013-09-09 14:36:00,66.1,56.8,29.67,WNW,284,12.0,12.0,72,0.01,,---,0.02,VWS V14.01,2013-09-09 20:36:00,
2013-09-09 14:41:00,66.6,54.9,29.67,NNW,329,6.0,9.0,66,0.01,,---,0.02,VWS V14.01,2013-09-09 20:41:00,
2013-09-09 14:46:00,67.3,53.4,29.67,West,266,4.0,12.0,61,0.01,,---,0.02,VWS V14.01,2013-09-09 20:46:00,
2013-09-09 14:52:00,67.9,52.1,29.67,West,273,5.0,9.0,57,0.01,,---,0.02,VWS V14.01,2013-09-09 20:52:00,
2013-09-09 14:57:00,68.4,53.1,29.66,West,279,3.0,6.0,58,0.01,,---,0.02,VWS V14.01,2013-09-09 20:57:00,
2013-09-09 15:03:00,68.9,52.1,29.66,WNW,283,3.0,3.0,55,0.01,,---,0.02,VWS V14.01,2013-09-09 21:03:00,
2013-09-09 15:08:00,69.3,53.4,29.66,WSW,256,4.0,7.0,57,0.01,,---,0.02,VWS V14.01,2013-09-09 21:08:00,
2013-09-09 15:13:00,69.3,54.8,29.65,SW,235,5.0,11.0,60,0.01,,---,0.02,VWS V14.01,2013-09-09 21:13:00,
2013-09-09 15:18:00,68.9,54.9,29.65,WSW,243,10.0,11.0,61,0.00,,---,0.02,VWS V14.01,2013-09-09 21:18:00,
2013-09-09 15:23:00,68.3,55.7,29.65,WSW,239,9.0,9.0,64,0.00,,---,0.02,VWS V14.01,2013-09-09 21:23:00,
2013-09-09 15:28:00,67.6,56.3,29.66,WSW,254,6.0,11.0,67,0.00,,---,0.02,VWS V14.01,2013-09-09 21:28:00,
2013-09-09 15:33:00,66.9,55.6,29.66,SW,232,9.0,9.0,67,0.00,,---,0.02,VWS V14.01,2013-09-09 21:33:00,
2013-09-09 15:39:00,66.4,55.5,29.66,WNW,289,3.0,10.0,68,0.00,,---,0.02,VWS V14.01,2013-09-09 21:39:00,
2013-09-09 15:44:00,66.3,55.8,29.67,WSW,253,6.0,6.0,69,0.00,,---,0.02,VWS V14.01,2013-09-09 21:44:00,
2013-09-09 15:49:00,66.1,56.8,29.67,SW,223,4.0,4.0,72,0.00,,---,0.02,VWS V14.01,2013-09-09 21:49:00,
2013-09-09 15:54:00,66.0,57.5,29.67,SW,229,2.0,3.0,74,0.00,,---,0.02,VWS V14.01,2013-09-09 21:54:00,
2013-09-09 16:00:00,65.6,57.8,29.66,SSW,195,7.0,7.0,76,0.00,,---,0.02,VWS V14.01,2013-09-09 22:00:00,
2013-09-09 16:05:00,65.3,58.3,29.66,South,182,3.0,5.0,78,0.01,,---,0.03,VWS V14.01,2013-09-09 22:05:00,
2013-09-09 16:11:00,65.2,58.9,29.68,SW,221,5.0,10.0,80,0.01,,---,0.03,VWS V14.01,2013-09-09 22:11:00,
2013-09-09 16:16:00,65.0,58.7,29.68,SW,236,9.0,14.0,80,0.01,,---,0.03,VWS V14.01,2013-09-09 22:16:00,
2013-09-09 16:22:00,64.7,58.4,29.68,South,184,3.0,7.0,80,0.01,,---,0.03,VWS V14.01,2013-09-09 22:22:00,
2013-09-09 16:27:00,64.5,58.2,29.68,WSW,247,0.0,9.0,80,0.01,,---,0.03,VWS V14.01,2013-09-09 22:27:00,
2013-09-09 16:33:00,64.5,58.2,29.68,WSW,246,9.0,9.0,80,0.01,,---,0.03,VWS V14.01,2013-09-09 22:33:00,
2013-09-09 16:38:00,64.3,57.7,29.68,SSW,213,3.0,4.0,79,0.01,,---,0.03,VWS V14.01,2013-09-09 22:38:00,
2013-09-09 16:44:00,64.3,57.7,29.66,SSW,195,3.0,5.0,79,0.01,,---,0.03,VWS V14.01,2013-09-09 22:44:00,
2013-09-09 16:49:00,64.2,57.9,29.66,South,178,0.0,0.0,80,0.01,,---,0.03,VWS V14.01,2013-09-09 22:49:00,
2013-09-09 16:55:00,64.3,58.0,29.66,WSW,246,5.0,12.0,80,0.01,,---,0.03,VWS V14.01,2013-09-09 22:55:00,
2013-09-09 17:01:00,64.3,58.0,29.67,SW,234,5.0,6.0,80,0.01,,---,0.03,VWS V14.01,2013-09-09 23:01:00,
2013-09-09 17:07:00,64.3,58.0,29.67,West,269,7.0,12.0,80,0.00,,---,0.03,VWS V14.01,2013-09-09 23:07:00,
2013-09-09 17:12:00,64.5,58.2,29.67,West,259,1.0,5.0,80,0.00,,---,0.03,VWS V14.01,2013-09-09 23:12:00,
2013-09-09 17:17:00,64.7,58.0,29.67,West,277,9.0,12.0,79,0.00,,---,0.03,VWS V14.01,2013-09-09 23:17:00,
2013-09-09 17:22:00,65.0,58.0,29.67,West,273,4.0,10.0,78,0.00,,---,0.03,VWS V14.01,2013-09-09 23:22:00,
2013-09-09 17:27:00,65.2,57.8,29.66,West,261,9.0,12.0,77,0.00,,---,0.03,VWS V14.01,2013-09-09 23:27:00,
2013-09-09 17:33:00,65.2,57.8,29.66,WSW,258,3.0,9.0,77,0.00,,---,0.03,VWS V14.01,2013-09-09 23:33:00,
2013-09-09 17:38:00,65.0,57.6,29.66,West,266,7.0,11.0,77,0.00,,---,0.03,VWS V14.01,2013-09-09 23:38:00,
2013-09-09 17:43:00,64.8,57.4,29.67,West,273,3.0,12.0,77,0.00,,---,0.03,VWS V14.01,2013-09-09 23:43:00,
2013-09-09 17:49:00,64.8,57.4,29.67,West,272,5.0,10.0,77,0.00,,---,0.03,VWS V14.01,2013-09-09 23:49:00,
2013-09-09 17:55:00,64.8,57.1,29.67,West,270,12.0,12.0,76,0.00,,---,0.03,VWS V14.01,2013-09-09 23:55:00,
2013-09-09 18:01:00,64.5,56.8,29.67,WSW,254,4.0,10.0,76,0.00,,---,0.03,VWS V14.01,2013-09-10 00:01:00,
2013-09-09 18:06:00,64.3,56.6,29.67,WNW,288,9.0,9.0,76,0.00,,---,0.03,VWS V14.01,2013-09-10 00:06:00,
2013-09-09 18:11:00,64.2,56.8,29.67,West,276,5.0,8.0,77,0.00,,---,0.03,VWS V14.01,2013-09-10 00:11:00,
2013-09-09 18:17:00,64.2,56.8,29.67,WSW,245,5.0,9.0,77,0.00,,---,0.03,VWS V14.01,2013-09-10 00:17:00,
2013-09-09 18:23:00,64.2,57.2,29.67,WNW,286,3.0,6.0,78,0.00,,---,0.03,VWS V14.01,2013-09-10 00:23:00,
2013-09-09 18:28:00,64.0,57.0,29.67,West,277,1.0,9.0,78,0.00,,---,0.03,VWS V14.01,2013-09-10 00:28:00,
2013-09-09 18:33:00,63.7,56.7,29.67,West,276,4.0,7.0,78,0.00,,---,0.03,VWS V14.01,2013-09-10 00:33:00,
2013-09-09 18:38:00,63.5,56.9,29.67,WSW,246,3.0,3.0,79,0.00,,---,0.03,VWS V14.01,2013-09-10 00:38:00,
2013-09-09 18:44:00,63.4,57.1,29.67,SW,236,0.0,0.0,80,0.00,,---,0.03,VWS V14.01,2013-09-10 00:44:00,
2013-09-09 18:50:00,63.2,56.9,29.67,SSW,213,4.0,6.0,80,0.00,,---,0.03,VWS V14.01,2013-09-10 00:50:00,
2013-09-09 18:55:00,62.9,56.6,29.67,SW,214,3.0,5.0,80,0.00,,---,0.03,VWS V14.01,2013-09-10 00:55:00,
2013-09-09 19:00:00,62.7,56.8,29.69,SW,229,5.0,6.0,81,0.00,,---,0.03,VWS V14.01,2013-09-10 01:00:00,
2013-09-09 19:06:00,62.4,56.5,29.69,SW,217,0.0,3.0,81,0.00,,---,0.03,VWS V14.01,2013-09-10 01:06:00,
2013-09-09 19:11:00,62.3,56.4,29.69,SW,223,0.0,0.0,81,0.00,,---,0.03,VWS V14.01,2013-09-10 01:11:00,
2013-09-09 19:17:00,62.3,56.7,29.69,SW,228,0.0,0.0,82,0.00,,---,0.03,VWS V14.01,2013-09-10 01:17:00,
2013-09-09 19:23:00,62.1,56.5,29.69,South,188,2.0,4.0,82,0.00,,---,0.03,VWS V14.01,2013-09-10 01:23:00,
2013-09-09 19:28:00,62.0,56.5,29.71,South,181,5.0,7.0,82,0.00,,---,0.03,VWS V14.01,2013-09-10 01:28:00,
2013-09-09 19:34:00,61.8,56.2,29.71,South,172,0.0,2.0,82,0.00,,---,0.03,VWS V14.01,2013-09-10 01:34:00,
2013-09-09 19:39:00,61.6,56.1,29.71,SSW,200,8.0,10.0,82,0.00,,---,0.03,VWS V14.01,2013-09-10 01:39:00,
2013-09-09 19:45:00,61.6,56.1,29.73,South,180,6.0,7.0,82,0.00,,---,0.03,VWS V14.01,2013-09-10 01:45:00,
2013-09-09 19:50:00,61.5,56.0,29.73,SSW,195,2.0,4.0,82,0.00,,---,0.03,VWS V14.01,2013-09-10 01:50:00,
2013-09-09 19:56:00,61.5,55.6,29.73,South,191,4.0,4.0,81,0.00,,---,0.03,VWS V14.01,2013-09-10 01:56:00,
2013-09-09 20:01:00,61.5,55.6,29.73,South,182,0.0,3.0,81,0.00,,---,0.03,VWS V14.01,2013-09-10 02:01:00,
2013-09-09 20:07:00,61.5,55.3,29.73,South,175,0.0,0.0,80,0.00,,---,0.03,VWS V14.01,2013-09-10 02:07:00,
2013-09-09 20:12:00,61.5,55.6,29.72,South,175,0.0,0.0,81,0.00,,---,0.03,VWS V14.01,2013-09-10 02:12:00,
2013-09-09 20:18:00,61.5,56.0,29.72,South,175,0.0,0.0,82,0.01,,---,0.04,VWS V14.01,2013-09-10 02:18:00,
2013-09-09 20:23:00,61.5,56.6,29.72,South,175,0.0,0.0,84,0.01,,---,0.04,VWS V14.01,2013-09-10 02:23:00,
2013-09-09 20:28:00,61.5,57.0,29.70,South,175,0.0,0.0,85,0.02,,---,0.05,VWS V14.01,2013-09-10 02:28:00,
2013-09-09 20:34:00,61.3,56.8,29.70,South,175,0.0,0.0,85,0.03,,---,0.06,VWS V14.01,2013-09-10 02:34:00,
2013-09-09 20:39:00,61.2,57.0,29.70,South,175,0.0,0.0,86,0.04,,---,0.07,VWS V14.01,2013-09-10 02:39:00,
2013-09-09 20:45:00,61.0,56.8,29.71,South,175,0.0,0.0,86,0.05,,---,0.08,VWS V14.01,2013-09-10 02:45:00,
2013-09-09 20:50:00,60.9,57.0,29.71,South,175,0.0,0.0,87,0.06,,---,0.09,VWS V14.01,2013-09-10 02:50:00,
2013-09-09 20:56:00,60.7,57.1,29.72,South,175,0.0,0.0,88,0.07,,---,0.10,VWS V14.01,2013-09-10 02:56:00,
2013-09-09 21:01:00,60.5,56.9,29.72,South,175,0.0,0.0,88,0.07,,---,0.10,VWS V14.01,2013-09-10 03:01:00,
2013-09-09 21:05:00,59.9,57.6,29.72,South,175,0.0,0.0,92,0.01,,---,0.11,VWS V14.01,2013-09-10 03:05:00,
2013-09-09 21:06:00,59.9,57.3,29.72,South,175,0.0,0.0,91,0.01,,---,0.11,VWS V14.01,2013-09-10 03:06:00,
2013-09-09 21:07:00,60.4,57.2,29.72,South,175,0.0,0.0,89,0.07,,---,0.10,VWS V14.01,2013-09-10 03:07:00,
2013-09-09 21:08:00,60.1,57.8,29.72,South,175,0.0,0.0,92,0.01,,---,0.11,VWS V14.01,2013-09-10 03:08:00,
2013-09-09 21:09:00,60.1,57.8,29.72,South,175,0.0,0.0,92,0.01,,---,0.11,VWS V14.01,2013-09-10 03:09:00,
2013-09-09 21:10:00,60.1,57.8,29.72,South,175,0.0,0.0,92,0.01,,---,0.11,VWS V14.01,2013-09-10 03:10:00,
2013-09-09 21:11:00,60.1,57.8,29.72,South,175,0.0,0.0,92,0.01,,---,0.11,VWS V14.01,2013-09-10 03:11:00,
2013-09-09 21:12:00,60.2,57.0,29.72,South,175,0.0,0.0,89,0.08,,---,0.11,VWS V14.01,2013-09-10 03:12:00,
2013-09-09 21:13:00,59.9,57.6,29.72,South,175,0.0,0.0,92,0.01,,---,0.11,VWS V14.01,2013-09-10 03:13:00,
2013-09-09 21:14:00,59.9,57.6,29.72,South,175,0.0,0.0,92,0.01,,---,0.11,VWS V14.01,2013-09-10 03:14:00,
2013-09-09 21:15:00,59.9,57.6,29.72,South,175,0.0,0.0,92,0.01,,---,0.11,VWS V14.01,2013-09-10 03:15:00,
2013-09-09 21:16:00,59.9,57.6,29.72,South,175,0.0,0.0,92,0.01,,---,0.11,VWS V14.01,2013-09-10 03:16:00,
2013-09-09 21:17:00,59.9,57.6,29.72,South,175,0.0,0.0,92,0.00,,---,0.11,VWS V14.01,2013-09-10 03:17:00,
2013-09-09 21:18:00,60.1,56.8,29.72,South,175,0.0,0.0,89,0.07,,---,0.11,VWS V14.01,2013-09-10 03:18:00,
2013-09-09 21:19:00,59.9,57.6,29.72,South,175,0.0,0.0,92,0.00,,---,0.11,VWS V14.01,2013-09-10 03:19:00,
2013-09-09 21:20:00,59.9,57.6,29.72,South,175,0.0,0.0,92,0.00,,---,0.11,VWS V14.01,2013-09-10 03:20:00,
2013-09-09 21:21:00,59.9,57.6,29.72,South,175,0.0,0.0,92,0.00,,---,0.11,VWS V14.01,2013-09-10 03:21:00,
2013-09-09 21:22:00,59.9,57.6,29.72,South,175,0.0,0.0,92,0.00,,---,0.11,VWS V14.01,2013-09-10 03:22:00,
2013-09-09 21:23:00,60.1,56.8,29.72,South,175,0.0,0.0,89,0.07,,---,0.11,VWS V14.01,2013-09-10 03:23:00,
2013-09-09 21:24:00,59.9,57.6,29.72,South,175,0.0,0.0,92,0.00,,---,0.11,VWS V14.01,2013-09-10 03:24:00,
2013-09-09 21:25:00,59.9,57.6,29.72,South,175,0.0,0.0,92,0.00,,---,0.11,VWS V14.01,2013-09-10 03:25:00,
2013-09-09 21:26:00,59.9,57.6,29.72,South,175,0.0,0.0,92,0.00,,---,0.11,VWS V14.01,2013-09-10 03:26:00,
2013-09-09 21:27:00,59.9,57.6,29.72,South,175,0.0,0.0,92,0.00,,---,0.11,VWS V14.01,2013-09-10 03:27:00,
2013-09-09 21:28:00,59.9,57.6,29.72,South,175,0.0,0.0,92,0.00,,---,0.11,VWS V14.01,2013-09-10 03:28:00,
2013-09-09 21:29:00,59.9,56.7,29.72,South,175,0.0,0.0,89,0.06,,---,0.11,VWS V14.01,2013-09-10 03:29:00,
2013-09-09 21:30:00,59.9,57.6,29.72,South,175,0.0,0.0,92,0.00,,---,0.11,VWS V14.01,2013-09-10 03:30:00,
2013-09-09 21:31:00,59.9,57.6,29.72,South,175,0.0,0.0,92,0.00,,---,0.11,VWS V14.01,2013-09-10 03:31:00,
2013-09-09 21:32:00,59.9,57.6,29.72,South,175,0.0,0.0,92,0.00,,---,0.11,VWS V14.01,2013-09-10 03:32:00,
2013-09-09 21:33:00,59.9,57.6,29.72,South,175,0.0,0.0,92,0.00,,---,0.11,VWS V14.01,2013-09-10 03:33:00,
2013-09-09 21:34:00,59.9,56.7,29.72,South,175,0.0,0.0,89,0.05,,---,0.11,VWS V14.01,2013-09-10 03:34:00,
2013-09-09 21:35:00,60.1,57.8,29.72,South,175,0.0,0.0,92,0.00,,---,0.11,VWS V14.01,2013-09-10 03:35:00,
2013-09-09 21:36:00,60.1,57.8,29.72,South,175,0.0,0.0,92,0.00,,---,0.11,VWS V14.01,2013-09-10 03:36:00,
2013-09-09 21:37:00,60.1,57.8,29.72,South,175,0.0,0.0,92,0.00,,---,0.11,VWS V14.01,2013-09-10 03:37:00,
2013-09-09 21:38:00,60.1,57.8,29.72,South,175,0.0,0.0,92,0.00,,---,0.11,VWS V14.01,2013-09-10 03:38:00,
2013-09-09 21:39:00,60.1,57.8,29.72,South,175,0.0,0.0,92,0.00,,---,0.11,VWS V14.01,2013-09-10 03:39:00,
2013-09-09 21:40:00,59.8,56.9,29.72,South,175,0.0,0.0,90,0.04,,---,0.11,VWS V14.01,2013-09-10 03:40:00,
2013-09-09 21:41:00,60.1,57.8,29.72,South,175,0.0,0.0,92,0.00,,---,0.11,VWS V14.01,2013-09-10 03:41:00,
2013-09-09 21:42:00,60.1,57.8,29.72,South,175,0.0,0.0,92,0.00,,---,0.11,VWS V14.01,2013-09-10 03:42:00,
2013-09-09 21:43:00,60.1,57.8,29.72,South,175,0.0,0.0,92,0.00,,---,0.11,VWS V14.01,2013-09-10 03:43:00,
2013-09-09 21:44:00,60.1,57.8,29.72,South,175,0.0,0.0,92,0.00,,---,0.11,VWS V14.01,2013-09-10 03:44:00,
2013-09-09 21:45:00,59.8,56.9,29.72,South,175,0.0,0.0,90,0.04,,---,0.11,VWS V14.01,2013-09-10 03:45:00,
2013-09-09 21:46:00,60.1,57.8,29.72,South,175,0.0,0.0,92,0.00,,---,0.11,VWS V14.01,2013-09-10 03:46:00,
2013-09-09 21:47:00,60.1,57.8,29.72,South,175,0.0,0.0,92,0.01,,---,0.12,VWS V14.01,2013-09-10 03:47:00,
2013-09-09 21:48:00,60.1,57.8,29.72,South,175,0.0,0.0,92,0.01,,---,0.12,VWS V14.01,2013-09-10 03:48:00,
2013-09-09 21:49:00,60.1,57.8,29.72,South,175,0.0,0.0,92,0.01,,---,0.12,VWS V14.01,2013-09-10 03:49:00,
2013-09-09 21:50:00,59.9,57.3,29.72,South,175,0.0,0.0,91,0.02,,---,0.11,VWS V14.01,2013-09-10 03:50:00,
2013-09-09 21:51:00,60.1,57.8,29.72,South,175,0.0,0.0,92,0.01,,---,0.12,VWS V14.01,2013-09-10 03:51:00,
2013-09-09 21:52:00,60.1,57.8,29.72,South,175,0.0,0.0,92,0.01,,---,0.12,VWS V14.01,2013-09-10 03:52:00,
2013-09-09 21:53:00,60.1,58.1,29.72,South,175,0.0,0.0,93,0.01,,---,0.12,VWS V14.01,2013-09-10 03:53:00,
2013-09-09 21:54:00,60.1,58.1,29.72,South,175,0.0,0.0,93,0.01,,---,0.12,VWS V14.01,2013-09-10 03:54:00,
2013-09-09 21:55:00,59.9,57.3,29.72,South,175,0.0,0.0,91,0.02,,---,0.11,VWS V14.01,2013-09-10 03:55:00,
2013-09-09 21:56:00,60.1,57.8,29.72,South,175,0.0,0.0,92,0.01,,---,0.12,VWS V14.01,2013-09-10 03:56:00,
2013-09-09 21:57:00,60.1,57.8,29.72,South,175,0.0,0.0,92,0.01,,---,0.12,VWS V14.01,2013-09-10 03:57:00,
2013-09-09 21:58:00,60.1,57.8,29.72,South,175,0.0,0.0,92,0.01,,---,0.12,VWS V14.01,2013-09-10 03:58:00,
2013-09-09 21:59:00,60.1,57.8,29.72,South,175,0.0,0.0,92,0.01,,---,0.12,VWS V14.01,2013-09-10 03:59:00,
2013-09-09 22:00:00,59.9,57.9,29.73,South,175,0.0,0.0,93,0.01,,---,0.12,VWS V14.01,2013-09-10 04:00:00,
2013-09-09 22:01:00,59.9,57.9,29.73,South,175,0.0,0.0,93,0.01,,---,0.12,VWS V14.01,2013-09-10 04:01:00,
2013-09-09 22:02:00,59.9,57.9,29.73,South,175,0.0,0.0,93,0.01,,---,0.12,VWS V14.01,2013-09-10 04:02:00,
2013-09-09 22:03:00,59.9,57.9,29.73,South,175,0.0,0.0,93,0.01,,---,0.12,VWS V14.01,2013-09-10 04:03:00,
2013-09-09 22:04:00,59.9,57.9,29.73,South,175,0.0,0.0,93,0.01,,---,0.12,VWS V14.01,2013-09-10 04:04:00,
2013-09-09 22:05:00,59.9,57.9,29.73,South,175,0.0,0.0,93,0.01,,---,0.12,VWS V14.01,2013-09-10 04:05:00,
2013-09-09 22:06:00,59.9,57.9,29.73,South,175,0.0,0.0,93,0.01,,---,0.12,VWS V14.01,2013-09-10 04:06:00,
2013-09-09 22:07:00,59.9,57.9,29.73,South,175,0.0,0.0,93,0.01,,---,0.12,VWS V14.01,2013-09-10 04:07:00,
2013-09-09 22:08:00,59.9,57.9,29.73,South,175,0.0,0.0,93,0.01,,---,0.12,VWS V14.01,2013-09-10 04:08:00,
2013-09-09 22:09:00,59.9,57.9,29.73,South,175,0.0,0.0,93,0.01,,---,0.12,VWS V14.01,2013-09-10 04:09:00,
2013-09-09 22:10:00,59.9,57.9,29.73,South,175,0.0,0.0,93,0.01,,---,0.12,VWS V14.01,2013-09-10 04:10:00,
2013-09-09 22:11:00,59.9,57.9,29.73,South,175,0.0,0.0,93,0.01,,---,0.12,VWS V14.01,2013-09-10 04:11:00,
2013-09-09 22:12:00,59.9,57.9,29.73,South,175,0.0,0.0,93,0.01,,---,0.12,VWS V14.01,2013-09-10 04:12:00,
2013-09-09 22:13:00,59.9,57.9,29.73,South,175,0.0,0.0,93,0.01,,---,0.12,VWS V14.01,2013-09-10 04:13:00,
2013-09-09 22:14:00,59.9,57.9,29.73,South,175,0.0,0.0,93,0.01,,---,0.12,VWS V14.01,2013-09-10 04:14:00,
2013-09-09 22:15:00,59.9,57.9,29.73,South,175,0.0,0.0,93,0.01,,---,0.12,VWS V14.01,2013-09-10 04:15:00,
2013-09-09 22:16:00,59.9,57.9,29.73,South,175,0.0,0.0,93,0.01,,---,0.12,VWS V14.01,2013-09-10 04:16:00,
2013-09-09 22:17:00,59.9,57.9,29.73,South,175,0.0,0.0,93,0.01,,---,0.12,VWS V14.01,2013-09-10 04:17:00,
2013-09-09 22:18:00,59.9,57.9,29.73,South,175,0.0,0.0,93,0.01,,---,0.12,VWS V14.01,2013-09-10 04:18:00,
2013-09-09 22:19:00,59.9,57.9,29.73,South,175,0.0,0.0,93,0.01,,---,0.12,VWS V14.01,2013-09-10 04:19:00,
2013-09-09 22:20:00,59.9,57.9,29.73,South,175,0.0,0.0,93,0.01,,---,0.12,VWS V14.01,2013-09-10 04:20:00,
2013-09-09 22:21:00,59.9,57.9,29.73,South,175,0.0,0.0,93,0.01,,---,0.12,VWS V14.01,2013-09-10 04:21:00,
2013-09-09 22:22:00,59.9,57.9,29.73,South,175,0.0,0.0,93,0.01,,---,0.12,VWS V14.01,2013-09-10 04:22:00,
2013-09-09 22:24:00,59.9,57.9,29.73,South,175,0.0,0.0,93,0.01,,---,0.12,VWS V14.01,2013-09-10 04:24:00,
2013-09-09 22:25:00,59.9,57.9,29.73,South,175,0.0,0.0,93,0.01,,---,0.12,VWS V14.01,2013-09-10 04:25:00,
2013-09-09 22:26:00,59.9,57.9,29.73,South,175,0.0,0.0,93,0.01,,---,0.12,VWS V14.01,2013-09-10 04:26:00,
2013-09-09 22:29:00,59.8,57.8,29.73,South,175,0.0,0.0,93,0.01,,---,0.12,VWS V14.01,2013-09-10 04:29:00,
2013-09-09 22:31:00,59.8,57.8,29.73,South,175,0.0,0.0,93,0.01,,---,0.12,VWS V14.01,2013-09-10 04:31:00,
2013-09-09 22:32:00,59.8,57.8,29.73,South,175,0.0,0.0,93,0.01,,---,0.12,VWS V14.01,2013-09-10 04:32:00,
2013-09-09 22:39:00,59.8,57.8,29.73,South,175,0.0,0.0,93,0.01,,---,0.12,VWS V14.01,2013-09-10 04:39:00,
2013-09-09 22:40:00,59.8,57.8,29.73,South,175,0.0,0.0,93,0.01,,---,0.12,VWS V14.01,2013-09-10 04:40:00,
2013-09-09 22:47:00,59.9,58.2,29.73,South,175,0.0,0.0,94,0.02,,---,0.13,VWS V14.01,2013-09-10 04:47:00,
2013-09-09 22:49:00,59.9,57.9,29.73,South,175,0.0,0.0,93,0.01,,---,0.13,VWS V14.01,2013-09-10 04:49:00,
2013-09-09 22:55:00,59.9,58.2,29.73,South,175,0.0,0.0,94,0.01,,---,0.13,VWS V14.01,2013-09-10 04:55:00,
2013-09-09 22:57:00,59.9,58.2,29.73,South,175,0.0,0.0,94,0.01,,---,0.13,VWS V14.01,2013-09-10 04:57:00,
2013-09-09 23:03:00,59.8,57.8,29.72,South,175,0.0,0.0,93,0.01,,---,0.13,VWS V14.01,2013-09-10 05:03:00,
2013-09-09 23:05:00,59.8,58.1,29.72,South,175,0.0,0.0,94,0.01,,---,0.13,VWS V14.01,2013-09-10 05:05:00,
2013-09-09 23:18:00,59.8,58.1,29.70,South,175,0.0,0.0,94,0.01,,---,0.13,VWS V14.01,2013-09-10 05:18:00,
2013-09-09 23:19:00,59.9,57.9,29.73,South,175,0.0,0.0,93,0.01,,---,0.12,VWS V14.01,2013-09-10 05:19:00,
2013-09-09 23:23:00,59.8,58.1,29.70,South,175,0.0,0.0,94,0.01,,---,0.13,VWS V14.01,2013-09-10 05:23:00,
2013-09-09 23:24:00,59.8,57.8,29.73,South,175,0.0,0.0,93,0.01,,---,0.12,VWS V14.01,2013-09-10 05:24:00,
2013-09-09 23:26:00,59.8,58.1,29.70,South,175,0.0,0.0,94,0.01,,---,0.13,VWS V14.01,2013-09-10 05:26:00,
2013-09-09 23:28:00,59.8,58.1,29.70,South,175,0.0,0.0,94,0.01,,---,0.13,VWS V14.01,2013-09-10 05:28:00,
2013-09-09 23:30:00,59.8,57.8,29.73,South,175,0.0,0.0,93,0.01,,---,0.12,VWS V14.01,2013-09-10 05:30:00,
2013-09-09 23:36:00,59.8,58.1,29.69,South,175,0.0,0.0,94,0.01,,---,0.13,VWS V14.01,2013-09-10 05:36:00,
2013-09-09 23:37:00,59.8,57.8,29.73,South,175,0.0,0.0,93,0.01,,---,0.12,VWS V14.01,2013-09-10 05:37:00,
2013-09-09 23:39:00,59.8,58.1,29.69,South,175,0.0,0.0,94,0.01,,---,0.13,VWS V14.01,2013-09-10 05:39:00,
2013-09-09 23:42:00,59.9,57.9,29.73,South,175,0.0,0.0,93,0.02,,---,0.13,VWS V14.01,2013-09-10 05:42:00,
2013-09-09 23:47:00,59.9,58.2,29.73,South,175,0.0,0.0,94,0.01,,---,0.13,VWS V14.01,2013-09-10 05:47:00,
2013-09-09 23:52:00,59.9,58.2,29.73,South,175,0.0,0.0,94,0.01,,---,0.13,VWS V14.01,2013-09-10 05:52:00,
2013-09-09 23:57:00,59.8,58.1,29.67,ENE,64,0.0,0.0,94,0.01,,---,0.14,VWS V14.01,2013-09-10 05:57:00,
2013-09-09 23:58:00,59.8,57.8,29.72,South,175,0.0,0.0,93,0.01,,---,0.13,VWS V14.01,2013-09-10 05:58:00,